Time;durP1;ratioP1;P1;durP2;ratioP2;P2;SDS_P1;SDS_P2;PMS_P1;PMS_P2;Temp;Humidity;BMP_temperature;BMP_pressure;BME280_temperature;BME280_humidity;BME280_pressure;Samples;Min_cycle;Max_cycle;Signal;HPM_P1;HPM_P2
2021/04/12 00:00:48;;;;;;;21.10;13.00;;;15.00;65.00;;;;;;5054125;28;20027;-67
2021/04/12 00:03:27;;;;;;;21.40;13.80;;;15.00;64.40;;;;;;5054135;28;20013;-67
2021/04/12 00:06:14;;;;;;;22.55;14.20;;;15.00;64.80;;;;;;5054051;28;20081;-67
2021/04/12 00:08:53;;;;;;;21.77;13.88;;;15.00;65.10;;;;;;5053910;28;20494;-68
2021/04/12 00:11:49;;;;;;;26.70;12.55;;;14.90;64.80;;;;;;5053831;28;20180;-68
2021/04/12 00:14:35;;;;;;;22.75;11.25;;;14.90;65.60;;;;;;5053932;28;20025;-67
2021/04/12 00:17:29;;;;;;;18.35;11.73;;;14.90;64.70;;;;;;5053897;28;20103;-68
2021/04/12 00:19:59;;;;;;;19.80;11.88;;;14.80;64.50;;;;;;5053745;28;20025;-68
2021/04/12 00:22:30;;;;;;;22.80;11.73;;;14.80;64.60;;;;;;5053383;28;20110;-67
2021/04/12 00:24:58;;;;;;;21.88;11.73;;;14.90;64.50;;;;;;5053906;28;20078;-70
2021/04/12 00:27:32;;;;;;;17.63;11.57;;;15.00;64.50;;;;;;5053588;28;20056;-68
2021/04/12 00:30:08;;;;;;;22.25;12.23;;;15.00;65.20;;;;;;5053594;28;20029;-67
2021/04/12 00:32:43;;;;;;;20.83;11.50;;;15.10;64.50;;;;;;5053311;28;20466;-67
2021/04/12 00:35:08;;;;;;;25.70;12.57;;;15.10;65.10;;;;;;5053419;28;20082;-68
2021/04/12 00:37:47;;;;;;;23.27;12.40;;;15.00;64.40;;;;;;5053609;28;20128;-68
2021/04/12 00:40:44;;;;;;;19.48;12.48;;;15.10;65.30;;;;;;5053565;28;20465;-67
2021/04/12 00:43:18;;;;;;;26.88;13.40;;;15.00;65.20;;;;;;5050164;28;20508;-69
2021/04/12 00:46:22;;;;;;;22.35;13.18;;;15.00;65.30;;;;;;5053236;28;20029;-67
2021/04/12 00:49:03;;;;;;;21.67;13.27;;;15.10;65.30;;;;;;5053312;28;20021;-69
2021/04/12 00:51:47;;;;;;;23.85;13.23;;;15.10;65.30;;;;;;5053195;28;20095;-68
2021/04/12 00:54:37;;;;;;;23.15;13.30;;;15.10;64.90;;;;;;5053407;28;20083;-67
2021/04/12 00:57:41;;;;;;;22.63;14.40;;;15.10;65.40;;;;;;5053389;28;20033;-68
2021/04/12 01:00:25;;;;;;;19.42;13.02;;;15.10;65.50;;;;;;5051051;28;20029;-67
2021/04/12 01:03:05;;;;;;;21.67;13.75;;;15.10;65.10;;;;;;5053579;28;20025;-68
2021/04/12 01:06:08;;;;;;;22.42;13.38;;;15.10;65.80;;;;;;5053176;28;20379;-67
2021/04/12 01:09:03;;;;;;;23.17;13.80;;;15.10;65.80;;;;;;5053117;28;20039;-67
2021/04/12 01:11:32;;;;;;;26.83;14.52;;;15.00;65.80;;;;;;5052936;28;20484;-68
2021/04/12 01:14:06;;;;;;;28.27;14.48;;;15.00;65.40;;;;;;5053135;28;20051;-67
2021/04/12 01:16:51;;;;;;;37.15;16.38;;;15.00;65.90;;;;;;5052983;28;20478;-67
2021/04/12 01:19:22;;;;;;;22.73;15.05;;;15.00;65.20;;;;;;5053110;28;20036;-67
2021/04/12 01:22:25;;;;;;;22.55;14.40;;;15.00;65.80;;;;;;5052682;28;20101;-66
2021/04/12 01:25:04;;;;;;;25.23;15.05;;;15.00;65.90;;;;;;5053051;28;20130;-67
2021/04/12 01:28:06;;;;;;;24.33;15.10;;;15.00;65.40;;;;;;5053025;28;20029;-67
2021/04/12 01:30:37;;;;;;;25.10;15.90;;;15.00;65.90;;;;;;5052872;28;20061;-68
2021/04/12 01:33:21;;;;;;;28.55;15.52;;;15.00;65.80;;;;;;5052773;28;20021;-68
2021/04/12 01:36:21;;;;;;;26.38;15.70;;;15.00;65.20;;;;;;5051992;28;20032;-68
2021/04/12 01:38:58;;;;;;;29.25;15.95;;;14.90;65.90;;;;;;5051650;28;20409;-67
2021/04/12 01:41:29;;;;;;;25.25;15.25;;;14.80;65.60;;;;;;5052578;28;20429;-67
2021/04/12 01:44:13;;;;;;;26.20;16.30;;;14.80;66.20;;;;;;5053819;28;20036;-68
2021/04/12 01:47:00;;;;;;;28.05;16.95;;;14.90;66.30;;;;;;5056744;28;20033;-68
2021/04/12 01:49:44;;;;;;;24.88;16.08;;;14.80;66.20;;;;;;5056358;28;20029;-67
2021/04/12 01:52:20;;;;;;;;;;;14.80;65.90;;;;;;5057059;28;20029;-68
2021/04/12 01:55:01;;;;;;;25.88;15.35;;;14.70;66.90;;;;;;5056433;28;19915;-68
2021/04/12 01:57:45;;;;;;;26.88;15.65;;;14.70;66.50;;;;;;5056460;28;20033;-67
2021/04/12 02:00:40;;;;;;;25.88;16.58;;;14.70;66.50;;;;;;5056184;28;20055;-68
2021/04/12 02:03:06;;;;;;;25.77;15.63;;;14.80;65.90;;;;;;5056570;28;20490;-67
2021/04/12 02:05:40;;;;;;;25.95;15.98;;;14.80;65.80;;;;;;5056315;28;20029;-68
2021/04/12 02:08:18;;;;;;;26.30;14.93;;;14.80;66.40;;;;;;5056241;28;20203;-66
2021/04/12 02:11:28;;;;;;;25.25;14.68;;;14.80;66.30;;;;;;5056022;28;20041;-68
2021/04/12 02:14:34;;;;;;;27.83;15.85;;;14.80;66.60;;;;;;5036575;28;20108;-66
2021/04/12 02:17:24;;;;;;;29.45;15.70;;;14.70;66.50;;;;;;5055883;28;20033;-68
2021/04/12 02:19:55;;;;;;;24.77;15.10;;;14.70;66.10;;;;;;5055875;28;20170;-68
2021/04/12 02:22:58;;;;;;;26.52;14.32;;;14.70;67.00;;;;;;5055649;28;20037;-67
2021/04/12 02:25:45;;;;;;;25.58;15.30;;;14.70;66.80;;;;;;5055879;28;20040;-68
2021/04/12 02:28:19;;;;;;;22.23;15.07;;;14.70;66.60;;;;;;5054367;28;20104;-67
2021/04/12 02:30:50;;;;;;;22.67;16.02;;;14.70;66.80;;;;;;5055657;28;20038;-68
2021/04/12 02:33:28;;;;;;;24.80;15.38;;;14.70;67.00;;;;;;5055670;28;20021;-68
2021/04/12 02:36:02;;;;;;;23.98;16.25;;;14.60;66.90;;;;;;5055818;28;20478;-67
2021/04/12 02:39:06;;;;;;;26.90;16.73;;;14.50;67.10;;;;;;5055640;28;20500;-67
2021/04/12 02:41:54;;;;;;;25.33;16.17;;;14.50;67.30;;;;;;5055610;28;20021;-67
2021/04/12 02:44:39;;;;;;;25.00;15.45;;;14.60;67.60;;;;;;5055835;28;20396;-68
2021/04/12 02:47:36;;;;;;;24.02;15.07;;;14.70;67.30;;;;;;5055477;28;20017;-66
2021/04/12 02:50:13;;;;;;;24.42;15.60;;;14.70;67.00;;;;;;5055339;28;20060;-67
2021/04/12 02:53:03;;;;;;;23.10;14.63;;;14.70;67.20;;;;;;5055897;28;20024;-68
2021/04/12 02:55:37;;;;;;;30.30;17.00;;;14.80;66.50;;;;;;5054077;28;20036;-66
2021/04/12 02:58:21;;;;;;;23.92;15.88;;;14.80;67.20;;;;;;5053792;28;20430;-67
2021/04/12 03:01:05;;;;;;;25.30;16.15;;;14.80;67.10;;;;;;5055084;28;20032;-66
2021/04/12 03:03:52;;;;;;;18.73;13.98;;;14.80;66.60;;;;;;5055244;28;20116;-68
2021/04/12 03:06:41;;;;;;;23.33;15.85;;;14.90;67.20;;;;;;5055168;28;20111;-67
2021/04/12 03:09:40;;;;;;;24.65;16.15;;;14.90;67.00;;;;;;5054766;28;20041;-68
2021/04/12 03:12:33;;;;;;;26.33;15.85;;;14.80;67.00;;;;;;5054945;28;20032;-68
2021/04/12 03:15:23;;;;;;;29.10;15.52;;;14.70;67.30;;;;;;5055066;28;20025;-66
2021/04/12 03:18:26;;;;;;;31.08;16.58;;;14.70;67.40;;;;;;5055000;28;20056;-68
2021/04/12 03:20:59;;;;;;;24.92;16.02;;;14.60;67.40;;;;;;5054897;28;20021;-68
2021/04/12 03:23:50;;;;;;;27.00;15.63;;;14.50;67.20;;;;;;5054734;28;20048;-68
2021/04/12 03:26:20;;;;;;;31.58;16.10;;;14.40;68.00;;;;;;5054737;28;20032;-68
2021/04/12 03:29:13;;;;;;;25.95;15.50;;;14.30;67.50;;;;;;5054730;28;20087;-69
2021/04/12 03:32:03;;;;;;;24.42;15.00;;;14.20;68.30;;;;;;5054708;28;20040;-68
2021/04/12 03:34:39;;;;;;;23.17;15.13;;;14.20;68.50;;;;;;5054586;28;20025;-68
2021/04/12 03:37:36;;;;;;;21.75;15.77;;;14.20;67.50;;;;;;5054577;28;20033;-67
2021/04/12 03:40:25;;;;;;;28.02;15.30;;;14.20;68.50;;;;;;5054170;28;20035;-67
2021/04/12 03:43:08;;;;;;;24.05;16.00;;;14.10;68.60;;;;;;5054434;28;20029;-67
2021/04/12 03:45:39;;;;;;;23.00;15.65;;;14.10;68.80;;;;;;5054233;28;20032;-67
2021/04/12 03:48:11;;;;;;;24.83;16.40;;;14.10;68.00;;;;;;5053039;28;20431;-68
2021/04/12 03:51:09;;;;;;;23.35;15.90;;;14.10;69.00;;;;;;5054040;28;20061;-67
2021/04/12 03:53:54;;;;;;;21.70;15.35;;;14.20;68.80;;;;;;5054455;28;20079;-68
2021/04/12 03:56:41;;;;;;;22.38;15.02;;;14.20;68.70;;;;;;5054042;28;20074;-68
2021/04/12 03:59:28;;;;;;;27.40;16.13;;;14.10;69.40;;;;;;5054073;28;20654;-67
2021/04/12 04:02:26;;;;;;;23.40;15.95;;;14.10;69.00;;;;;;5054052;28;20032;-68
2021/04/12 04:05:00;;;;;;;25.17;16.25;;;14.10;69.00;;;;;;5054064;28;20358;-68
2021/04/12 04:07:56;;;;;;;26.40;16.65;;;14.00;69.00;;;;;;5053657;28;20029;-67
2021/04/12 04:10:41;;;;;;;22.58;16.30;;;14.00;69.20;;;;;;5053743;28;20036;-67
2021/04/12 04:13:22;;;;;;;24.25;16.17;;;14.00;68.40;;;;;;5053831;28;20039;-68
2021/04/12 04:16:25;;;;;;;23.73;16.02;;;14.00;68.60;;;;;;5053486;28;20021;-67
2021/04/12 04:18:53;;;;;;;24.58;16.05;;;14.00;69.50;;;;;;5053851;28;20029;-68
2021/04/12 04:21:18;;;;;;;26.25;14.98;;;14.00;68.90;;;;;;5053459;28;20029;-68
2021/04/12 04:24:20;;;;;;;25.35;16.20;;;14.00;68.70;;;;;;5053673;28;20473;-68
2021/04/12 04:26:58;;;;;;;25.40;16.35;;;14.00;69.50;;;;;;5053599;28;20450;-68
2021/04/12 04:29:36;;;;;;;19.95;14.85;;;14.00;69.60;;;;;;5053362;28;20040;-68
2021/04/12 04:32:14;;;;;;;34.42;16.35;;;14.00;68.90;;;;;;5053561;28;20102;-67
2021/04/12 04:34:58;;;;;;;23.58;15.50;;;14.00;68.90;;;;;;5053149;28;20040;-68
2021/04/12 04:37:51;;;;;;;27.15;15.52;;;14.00;69.00;;;;;;5053532;28;20023;-67
2021/04/12 04:40:26;;;;;;;29.00;15.55;;;14.00;69.50;;;;;;5053152;28;20037;-68
2021/04/12 04:43:10;;;;;;;25.55;15.45;;;14.10;68.70;;;;;;5053122;28;20017;-67
2021/04/12 04:45:50;;;;;;;23.73;15.65;;;14.10;69.60;;;;;;5053265;28;20025;-69
2021/04/12 04:48:37;;;;;;;25.90;16.17;;;14.10;69.40;;;;;;5053304;28;20025;-67
2021/04/12 04:51:25;;;;;;;23.88;14.90;;;14.20;69.40;;;;;;5053130;28;20033;-67
2021/04/12 04:54:21;;;;;;;30.23;15.05;;;14.20;69.30;;;;;;5053247;28;20051;-68
2021/04/12 04:57:04;;;;;;;23.90;14.38;;;14.10;69.10;;;;;;5053161;28;20024;-68
2021/04/12 05:00:07;;;;;;;27.98;14.77;;;14.20;69.20;;;;;;5052695;28;20036;-69
2021/04/12 05:02:51;;;;;;;23.20;13.68;;;14.10;69.10;;;;;;5053261;28;20126;-68
2021/04/12 05:05:34;;;;;;;23.40;13.60;;;14.10;69.00;;;;;;5053169;28;20035;-73
2021/04/12 05:08:37;;;;;;;21.75;12.88;;;14.10;68.90;;;;;;5052949;28;20029;-69
2021/04/12 05:11:33;;;;;;;21.17;13.35;;;14.10;68.90;;;;;;5052644;28;20040;-70
2021/04/12 05:14:22;;;;;;;22.25;13.07;;;14.10;68.90;;;;;;5053037;28;20029;-68
2021/04/12 05:17:12;;;;;;;31.40;13.52;;;14.10;68.30;;;;;;5047270;28;20367;-70
2021/04/12 05:19:58;;;;;;;24.75;13.20;;;14.00;68.70;;;;;;5056692;28;20036;-70
2021/04/12 05:22:35;;;;;;;22.10;13.70;;;14.10;68.40;;;;;;5057063;28;20045;-69
2021/04/12 05:25:28;;;;;;;27.35;13.98;;;14.20;69.20;;;;;;5057122;28;20095;-68
2021/04/12 05:28:12;;;;;;;19.55;12.95;;;14.20;68.80;;;;;;5056756;28;20036;-68
2021/04/12 05:31:30;;;;;;;22.83;14.30;;;14.20;67.90;;;;;;5056620;28;20089;-70
2021/04/12 05:34:29;;;;;;;24.65;13.63;;;14.30;68.60;;;;;;5014877;28;20399;-72
2021/04/12 05:37:42;;;;;;;22.98;13.75;;;14.30;68.60;;;;;;5014944;28;20088;-73
2021/04/12 05:40:26;;;;;;;25.27;13.30;;;14.30;68.80;;;;;;5034459;28;20037;-71
2021/04/12 05:43:21;;;;;;;24.25;13.55;;;14.40;67.90;;;;;;5034707;28;20025;-74
2021/04/12 05:46:24;;;;;;;19.85;13.55;;;14.40;68.60;;;;;;5052039;28;20044;-70
2021/04/12 05:49:17;;;;;;;21.40;13.50;;;14.40;68.60;;;;;;5056442;28;20056;-69
2021/04/12 05:52:01;;;;;;;23.02;13.93;;;14.50;68.80;;;;;;5056302;28;20130;-71
2021/04/12 05:54:56;;;;;;;22.92;13.60;;;14.50;68.20;;;;;;5056391;28;20021;-73
2021/04/12 05:57:47;;;;;;;27.08;13.73;;;14.60;68.70;;;;;;5054731;28;20044;-70
2021/04/12 06:00:37;;;;;;;22.88;12.05;;;14.60;68.70;;;;;;5055706;28;20021;-69
2021/04/12 06:03:16;;;;;;;24.70;12.52;;;14.60;68.80;;;;;;5056258;28;20025;-69
2021/04/12 06:06:11;;;;;;;20.48;12.65;;;14.60;68.70;;;;;;5056113;28;20029;-68
2021/04/12 06:08:58;;;;;;;24.45;13.75;;;14.60;68.70;;;;;;5051944;28;20037;-69
2021/04/12 06:11:42;;;;;;;27.52;13.60;;;14.60;68.60;;;;;;5055966;28;20396;-69
2021/04/12 06:14:32;;;;;;;23.73;12.30;;;14.60;68.10;;;;;;5056061;28;20416;-69
2021/04/12 06:17:42;;;;;;;27.27;11.82;;;14.60;68.80;;;;;;5055887;28;20056;-72
2021/04/12 06:20:10;;;;;;;22.27;11.65;;;14.70;68.90;;;;;;5044968;28;20045;-72
2021/04/12 06:23:00;;;;;;;22.75;11.13;;;14.70;68.00;;;;;;5055382;28;20045;-70
2021/04/12 06:25:26;;;;;;;23.98;12.43;;;14.80;68.60;;;;;;5055488;28;20128;-70
2021/04/12 06:28:32;;;;;;;21.75;11.85;;;14.80;67.70;;;;;;5055637;28;20408;-70
2021/04/12 06:31:35;;;;;;;23.48;11.90;;;14.90;67.40;;;;;;5034069;28;20045;-68
2021/04/12 06:34:09;;;;;;;23.20;12.65;;;14.90;68.20;;;;;;5055476;28;20029;-71
2021/04/12 06:37:31;;;;;;;28.25;12.60;;;15.00;68.10;;;;;;5055686;28;20025;-70
2021/04/12 06:40:41;;;;;;;23.23;12.38;;;15.10;68.10;;;;;;5013739;28;20037;-70
2021/04/12 06:43:47;;;;;;;20.02;12.50;;;15.10;68.10;;;;;;5013454;28;20029;-73
2021/04/12 06:46:50;;;;;;;25.42;12.57;;;15.20;68.00;;;;;;5055058;28;20429;-73
2021/04/12 06:49:45;;;;;;;19.10;11.90;;;15.30;67.90;;;;;;5055121;28;20040;-71
2021/04/12 06:52:47;;;;;;;22.08;12.02;;;15.30;67.70;;;;;;5018037;28;20044;-69
2021/04/12 06:55:23;;;;;;;22.52;12.75;;;15.30;67.30;;;;;;5054771;28;20029;-72
2021/04/12 06:58:11;;;;;;;16.23;11.88;;;15.30;67.30;;;;;;5054923;28;20059;-69
2021/04/12 07:00:55;;;;;;;22.35;12.20;;;15.30;67.50;;;;;;5053422;28;20394;-71
2021/04/12 07:03:42;;;;;;;20.85;11.55;;;15.30;67.50;;;;;;5054880;28;20040;-72
2021/04/12 07:06:32;;;;;;;19.40;11.18;;;15.30;67.40;;;;;;5055036;28;20549;-70
2021/04/12 07:09:17;;;;;;;16.70;10.32;;;15.30;67.30;;;;;;5054946;28;20462;-71
2021/04/12 07:11:57;;;;;;;18.25;10.45;;;15.40;67.30;;;;;;5054120;28;20055;-72
2021/04/12 07:15:05;;;;;;;16.50;9.00;;;15.30;66.60;;;;;;5054690;28;20100;-69
2021/04/12 07:18:04;;;;;;;19.92;9.70;;;15.40;67.10;;;;;;5054355;28;20025;-70
2021/04/12 07:20:48;;;;;;;18.17;8.57;;;15.40;67.10;;;;;;5054420;28;20032;-73
2021/04/12 07:23:51;;;;;;;14.27;7.70;;;15.50;66.60;;;;;;5054149;28;20053;-71
2021/04/12 07:26:54;;;;;;;16.70;8.57;;;15.50;67.00;;;;;;5054494;28;20421;-72
2021/04/12 07:29:44;;;;;;;15.93;8.20;;;15.50;67.10;;;;;;5054519;28;20036;-72
2021/04/12 07:32:16;;;;;;;13.63;7.82;;;15.50;67.00;;;;;;5052660;28;20029;-70
2021/04/12 07:35:05;;;;;;;14.85;7.22;;;15.60;66.50;;;;;;5054327;28;20107;-74
2021/04/12 07:37:52;;;;;;;14.57;7.22;;;15.60;66.30;;;;;;5053846;28;20524;-72
2021/04/12 07:40:48;;;;;;;12.13;6.20;;;15.60;66.60;;;;;;5053635;28;20033;-71
2021/04/12 07:43:35;;;;;;;10.93;6.80;;;15.60;66.50;;;;;;5053885;28;20036;-69
2021/04/12 07:48:59;;;;;;;15.00;6.63;;;15.80;66.30;;;;;;5053666;28;20119;-70
2021/04/12 07:51:50;;;;;;;15.65;6.47;;;15.90;65.90;;;;;;5052179;28;20107;-71
2021/04/12 07:54:31;;;;;;;15.57;6.63;;;15.90;65.60;;;;;;5053556;28;20109;-70
2021/04/12 07:57:17;;;;;;;14.40;7.20;;;16.00;65.50;;;;;;5053560;28;20074;-69
2021/04/12 08:00:20;;;;;;;13.77;6.80;;;16.00;65.30;;;;;;5053329;28;20021;-70
2021/04/12 08:03:07;;;;;;;11.40;5.93;;;16.10;65.10;;;;;;5053387;28;20482;-71
2021/04/12 08:06:14;;;;;;;11.98;5.40;;;16.10;64.30;;;;;;5053661;28;20425;-67
2021/04/12 08:08:39;;;;;;;11.82;5.30;;;16.20;64.60;;;;;;5036647;28;20440;-69
2021/04/12 08:11:43;;;;;;;13.95;5.38;;;16.30;64.00;;;;;;5053202;28;20044;-69
2021/04/12 08:14:39;;;;;;;13.30;5.15;;;16.30;64.60;;;;;;5053322;28;20033;-73
2021/04/12 08:17:37;;;;;;;12.70;5.35;;;16.40;63.60;;;;;;5053310;28;20024;-69
2021/04/12 08:20:47;;;;;;;10.65;4.68;;;16.50;63.20;;;;;;5053130;28;20061;-70
2021/04/12 08:23:37;;;;;;;12.05;4.93;;;16.60;62.70;;;;;;5010197;28;20063;-71
2021/04/12 08:26:24;;;;;;;10.55;4.78;;;16.70;62.00;;;;;;5033135;28;20107;-70
2021/04/12 08:29:08;;;;;;;12.13;5.30;;;16.80;61.60;;;;;;5032959;28;20443;-69
2021/04/12 08:32:03;;;;;;;9.68;5.10;;;16.90;61.00;;;;;;5033173;28;20056;-69
2021/04/12 08:34:55;;;;;;;18.90;5.25;;;17.10;60.50;;;;;;5028444;28;20100;-71
2021/04/12 08:37:39;;;;;;;16.85;5.88;;;17.30;60.70;;;;;;5024508;28;20438;-71
2021/04/12 08:40:40;;;;;;;13.90;5.20;;;17.50;59.90;;;;;;5032835;28;20088;-70
2021/04/12 08:43:41;;;;;;;11.20;5.20;;;17.80;59.70;;;;;;5033248;28;20036;-71
2021/04/12 08:46:35;;;;;;;14.02;5.65;;;17.90;59.10;;;;;;5033166;28;20037;-72
2021/04/12 08:49:37;;;;;;;14.57;6.05;;;18.10;58.90;;;;;;5032977;28;20376;-73
2021/04/12 08:52:45;;;;;;;14.80;5.57;;;18.20;58.90;;;;;;5034359;28;20033;-68
2021/04/12 08:55:38;;;;;;;13.02;5.93;;;18.20;58.60;;;;;;5034017;28;20030;-69
2021/04/12 08:58:13;;;;;;;13.55;5.63;;;18.20;58.60;;;;;;5032700;28;20049;-69
2021/04/12 09:01:30;;;;;;;12.93;5.88;;;18.30;59.00;;;;;;5032347;28;20109;-70
2021/04/12 09:04:26;;;;;;;10.20;4.88;;;18.30;58.90;;;;;;5020815;28;20077;-69
2021/04/12 09:07:11;;;;;;;11.77;5.40;;;18.40;58.70;;;;;;5032771;28;20036;-68
2021/04/12 09:10:13;;;;;;;13.18;5.10;;;18.40;58.40;;;;;;5032698;28;20044;-72
2021/04/12 09:12:57;;;;;;;14.68;5.20;;;18.40;58.30;;;;;;5032649;28;20367;-68
2021/04/12 09:16:02;;;;;;;12.52;5.10;;;18.40;58.20;;;;;;5032703;28;20049;-68
2021/04/12 09:18:48;;;;;;;10.95;4.88;;;18.40;58.30;;;;;;5027878;28;20041;-69
2021/04/12 09:21:49;;;;;;;12.73;4.82;;;18.50;58.50;;;;;;5031789;28;20387;-69
2021/04/12 09:24:27;;;;;;;10.38;4.47;;;18.50;58.10;;;;;;5050814;28;20364;-68
2021/04/12 09:27:07;;;;;;;13.60;4.95;;;18.60;58.10;;;;;;5052423;28;20049;-69
2021/04/12 09:29:42;;;;;;;10.57;4.30;;;18.60;58.00;;;;;;5052176;28;20045;-67
2021/04/12 09:32:29;;;;;;;12.02;4.35;;;18.60;57.90;;;;;;5052267;28;20025;-70
2021/04/12 09:35:32;;;;;;;18.58;4.90;;;18.50;57.90;;;;;;5052668;28;20052;-70
2021/04/12 09:38:25;;;;;;;10.93;4.50;;;18.50;58.00;;;;;;5052483;28;20033;-70
2021/04/12 09:41:32;;;;;;;10.77;3.97;;;18.40;58.10;;;;;;5052347;28;20022;-71
2021/04/12 09:44:34;;;;;;;12.45;4.93;;;18.40;58.30;;;;;;4997955;28;20452;-73
2021/04/12 09:47:40;;;;;;;12.35;4.78;;;18.30;58.40;;;;;;5052193;28;20033;-70
2021/04/12 09:50:31;;;;;;;14.95;4.55;;;18.30;58.40;;;;;;5052104;28;20123;-71
2021/04/12 09:53:02;;;;;;;13.02;5.00;;;18.30;58.60;;;;;;5052311;28;20068;-71
2021/04/12 09:56:16;;;;;;;12.50;5.20;;;18.30;58.50;;;;;;5050826;28;20127;-70
2021/04/12 09:59:20;;;;;;;42.55;6.05;;;18.30;58.60;;;;;;5051780;28;20033;-71
2021/04/12 10:02:36;;;;;;;12.43;5.45;;;18.20;58.60;;;;;;4990602;28;20440;-71
2021/04/12 10:05:51;;;;;;;14.70;5.30;;;18.20;58.70;;;;;;4952515;28;20171;-74
2021/04/12 10:08:23;;;;;;;12.73;5.15;;;18.10;58.80;;;;;;5056894;28;20056;-68
2021/04/12 10:10:55;;;;;;;12.02;5.25;;;18.20;58.90;;;;;;5056075;28;20493;-69
2021/04/12 10:13:42;;;;;;;12.68;5.10;;;18.20;59.00;;;;;;5055773;28;20086;-72
2021/04/12 10:16:21;;;;;;;12.75;5.75;;;18.20;58.70;;;;;;5055787;28;20048;-72
2021/04/12 10:18:50;;;;;;;16.60;5.07;;;18.20;59.00;;;;;;5054157;28;20072;-71
2021/04/12 10:21:44;;;;;;;14.93;5.35;;;18.10;58.90;;;;;;5055386;28;20363;-70
2021/04/12 10:24:23;;;;;;;14.38;5.88;;;18.10;59.30;;;;;;5055705;28;20040;-68
2021/04/12 10:26:58;;;;;;;14.65;4.82;;;18.10;59.40;;;;;;5055688;28;20032;-70
2021/04/12 10:29:40;;;;;;;13.27;5.10;;;18.00;59.60;;;;;;5055521;28;20050;-68
2021/04/12 10:32:26;;;;;;;11.07;4.80;;;18.00;59.90;;;;;;5055246;28;20021;-69
2021/04/12 10:34:57;;;;;;;13.18;5.65;;;17.90;59.70;;;;;;5055395;28;20033;-68
2021/04/12 10:37:42;;;;;;;15.70;6.00;;;17.90;60.10;;;;;;5055334;28;20032;-73
2021/04/12 10:40:20;;;;;;;17.95;6.28;;;17.80;60.50;;;;;;5054944;28;20025;-67
2021/04/12 10:42:53;;;;;;;16.83;5.10;;;17.70;60.90;;;;;;5054121;28;20359;-68
2021/04/12 10:45:28;;;;;;;14.38;5.53;;;17.70;61.00;;;;;;5055328;28;20039;-72
2021/04/12 10:48:18;;;;;;;12.82;5.55;;;17.60;60.90;;;;;;5055502;28;20342;-70
2021/04/12 10:51:17;;;;;;;11.48;4.90;;;17.60;61.50;;;;;;5054756;28;20036;-68
2021/04/12 10:53:45;;;;;;;18.02;5.82;;;17.60;61.60;;;;;;5054963;28;20096;-69
2021/04/12 10:56:33;;;;;;;15.57;5.85;;;17.60;61.70;;;;;;5054760;28;20028;-69
2021/04/12 10:59:26;;;;;;;15.93;5.85;;;17.70;61.70;;;;;;5055039;28;20025;-68
2021/04/12 11:02:26;;;;;;;13.23;6.05;;;17.80;61.50;;;;;;5056035;28;20441;-70
2021/04/12 11:04:54;;;;;;;12.98;6.30;;;17.90;61.60;;;;;;5055465;28;20036;-74
2021/04/12 11:07:48;;;;;;;16.92;5.82;;;17.90;61.40;;;;;;5055027;28;20021;-70
2021/04/12 11:10:29;;;;;;;13.18;5.88;;;18.00;61.30;;;;;;5054582;28;20484;-69
2021/04/12 11:13:10;;;;;;;12.85;5.55;;;18.00;61.30;;;;;;5053424;28;20017;-69
2021/04/12 11:15:45;;;;;;;17.90;4.45;;;18.00;61.30;;;;;;5053706;28;20025;-69
2021/04/12 11:18:19;;;;;;;18.85;5.05;;;18.00;61.30;;;;;;5054908;28;20428;-70
2021/04/12 11:21:11;;;;;;;14.10;4.35;;;17.90;61.60;;;;;;5054984;28;20095;-70
2021/04/12 11:23:50;;;;;;;12.88;4.93;;;17.80;61.70;;;;;;5054484;28;20111;-67
2021/04/12 11:26:24;;;;;;;11.73;4.68;;;17.70;61.80;;;;;;5054695;28;20449;-68
2021/04/12 11:29:22;;;;;;;14.27;4.45;;;17.60;62.10;;;;;;5053675;28;20057;-69
2021/04/12 11:32:17;;;;;;;11.10;4.30;;;17.60;62.30;;;;;;5046492;28;20056;-70
2021/04/12 11:34:51;;;;;;;;;;;17.40;61.90;;;;;;5055546;28;20055;-70
2021/04/12 11:37:22;;;;;;;;;;;17.40;63.10;;;;;;5055790;28;19951;-70
2021/04/12 11:40:04;;;;;;;14.50;4.80;;;17.40;63.00;;;;;;5058561;28;19951;-69
2021/04/12 11:42:36;;;;;;;15.32;4.85;;;17.40;62.50;;;;;;5054737;28;20028;-68
2021/04/12 11:45:15;;;;;;;19.02;5.63;;;17.40;62.20;;;;;;5054549;28;20087;-69
2021/04/12 11:47:59;;;;;;;17.83;4.63;;;17.40;62.70;;;;;;5054452;28;20025;-71
2021/04/12 11:50:38;;;;;;;11.40;4.65;;;17.40;62.50;;;;;;5053816;28;20473;-72
2021/04/12 11:53:25;;;;;;;14.07;4.47;;;17.40;63.10;;;;;;5054188;28;20017;-69
2021/04/12 11:56:19;;;;;;;15.30;4.40;;;17.40;62.90;;;;;;5054030;28;20512;-70
2021/04/12 11:58:55;;;;;;;12.93;4.70;;;17.40;63.10;;;;;;5054381;28;20025;-68
2021/04/12 12:01:30;;;;;;;11.85;4.15;;;17.40;62.70;;;;;;5053779;28;20033;-68
2021/04/12 12:04:14;;;;;;;15.93;4.97;;;17.30;63.10;;;;;;5053691;28;20025;-68
2021/04/12 12:06:43;;;;;;;17.25;4.80;;;17.30;63.00;;;;;;5053477;28;20037;-70
2021/04/12 12:09:30;;;;;;;16.67;5.20;;;17.20;63.20;;;;;;5053298;28;20029;-69
2021/04/12 12:12:24;;;;;;;13.35;5.15;;;17.20;63.90;;;;;;5053567;28;20031;-70
2021/04/12 12:15:19;;;;;;;14.07;4.78;;;17.10;64.20;;;;;;5053529;28;20029;-71
2021/04/12 12:17:56;;;;;;;11.98;4.57;;;17.10;64.60;;;;;;5053671;28;20107;-70
2021/04/12 12:20:36;;;;;;;11.77;4.40;;;17.00;64.10;;;;;;5053423;28;20024;-71
2021/04/12 12:23:36;;;;;;;15.00;5.13;;;17.00;64.90;;;;;;5051716;28;20049;-70
2021/04/12 12:26:06;;;;;;;13.45;4.95;;;16.90;64.80;;;;;;5053283;28;20092;-69
2021/04/12 12:28:56;;;;;;;15.30;5.45;;;17.00;65.20;;;;;;5052948;28;20041;-70
2021/04/12 12:31:35;;;;;;;11.43;4.63;;;17.10;66.20;;;;;;5052966;28;20075;-70
2021/04/12 12:34:16;;;;;;;16.42;5.18;;;17.10;65.60;;;;;;5052881;28;20051;-67
2021/04/12 12:37:02;;;;;;;18.50;5.60;;;17.10;66.20;;;;;;5053117;28;20029;-69
2021/04/12 12:39:53;;;;;;;16.90;7.38;;;17.10;65.80;;;;;;5022286;28;20122;-74
2021/04/12 12:42:38;;;;;;;9.98;4.78;;;17.10;66.30;;;;;;5053128;28;20060;-71
2021/04/12 12:45:15;;;;;;;23.55;7.03;;;17.00;66.00;;;;;;5053113;28;20111;-69
2021/04/12 12:47:47;;;;;;;15.52;6.15;;;17.00;66.20;;;;;;5053087;28;20123;-68
2021/04/12 12:50:20;;;;;;;14.55;4.82;;;17.10;65.90;;;;;;5052491;28;20124;-69
2021/04/12 12:52:56;;;;;;;12.88;5.63;;;17.10;65.60;;;;;;5053121;28;20100;-71
2021/04/12 12:55:31;;;;;;;14.02;5.45;;;17.10;66.00;;;;;;5053154;28;20032;-69
2021/04/12 12:58:04;;;;;;;12.02;4.78;;;17.10;65.90;;;;;;5053039;28;20025;-68
2021/04/12 13:00:38;;;;;;;;;;;17.10;66.20;;;;;;5052310;28;20036;-71
2021/04/12 13:03:35;;;;;;;13.45;5.75;;;17.00;67.20;;;;;;5051400;28;20333;-69
2021/04/12 13:06:17;;;;;;;15.90;5.57;;;16.90;66.70;;;;;;5046949;28;20040;-71
2021/04/12 13:09:14;;;;;;;14.88;6.28;;;16.90;67.20;;;;;;5052503;28;20029;-70
2021/04/12 13:11:53;;;;;;;12.40;5.80;;;16.90;67.50;;;;;;5044111;28;20200;-70
2021/04/12 13:14:30;;;;;;;10.10;5.60;;;16.80;67.40;;;;;;5052679;28;20040;-68
2021/04/12 13:16:58;;;;;;;14.50;5.65;;;16.80;67.90;;;;;;5051373;28;20048;-68
2021/04/12 13:19:25;;;;;;;12.95;5.45;;;16.70;67.70;;;;;;5052648;28;20033;-68
2021/04/12 13:22:02;;;;;;;10.85;5.68;;;16.60;67.90;;;;;;5052422;28;20045;-70
2021/04/12 13:24:33;;;;;;;12.30;6.30;;;16.60;69.00;;;;;;5052652;28;20118;-68
2021/04/12 13:27:05;;;;;;;17.13;6.95;;;16.60;68.70;;;;;;5052184;28;20013;-69
2021/04/12 13:29:43;;;;;;;17.77;6.30;;;16.70;70.00;;;;;;5052399;28;20041;-70
2021/04/12 13:32:37;;;;;;;13.23;5.45;;;16.60;69.80;;;;;;5052077;28;20028;-69
2021/04/12 13:35:11;;;;;;;12.02;5.60;;;16.60;69.10;;;;;;5050368;28;20036;-68
2021/04/12 13:37:56;;;;;;;12.18;4.70;;;16.50;69.60;;;;;;5052584;28;20028;-69
2021/04/12 13:40:28;;;;;;;10.15;4.88;;;16.50;69.80;;;;;;5055987;28;20017;-69
2021/04/12 13:43:06;;;;;;;11.40;4.72;;;16.50;69.50;;;;;;5056547;28;20028;-67
2021/04/12 13:45:45;;;;;;;10.70;4.90;;;16.50;69.70;;;;;;5056539;28;20458;-69
2021/04/12 13:48:19;;;;;;;13.57;5.50;;;16.50;70.10;;;;;;5056221;28;20025;-70
2021/04/12 13:51:03;;;;;;;9.68;4.60;;;16.50;70.90;;;;;;5056060;28;20041;-69
2021/04/12 13:53:44;;;;;;;12.20;4.85;;;16.50;70.60;;;;;;5056093;28;20386;-72
2021/04/12 13:56:14;;;;;;;8.98;4.40;;;16.50;70.80;;;;;;5056206;28;20446;-70
2021/04/12 13:58:43;;;;;;;9.52;3.92;;;16.50;70.30;;;;;;5055854;28;20036;-71
2021/04/12 14:01:17;;;;;;;8.15;4.57;;;16.50;70.00;;;;;;5055974;28;20029;-68
2021/04/12 14:04:05;;;;;;;7.45;4.03;;;16.40;71.10;;;;;;5056008;28;20028;-72
2021/04/12 14:07:08;;;;;;;7.80;3.85;;;16.40;70.60;;;;;;5056019;28;20103;-69
2021/04/12 14:09:42;;;;;;;7.37;3.40;;;16.40;71.40;;;;;;5055837;28;20072;-70
2021/04/12 14:12:13;;;;;;;;;;;16.40;71.50;;;;;;5056043;28;20040;-70